Time;durP1;ratioP1;P1;durP2;ratioP2;P2;SDS_P1;SDS_P2;PMS_P1;PMS_P2;Temp;Humidity;BMP_temperature;BMP_pressure;BME280_temperature;BME280_humidity;BME280_pressure;Samples;Min_cycle;Max_cycle;Signal;HPM_P1;HPM_P2
2022/07/23 00:01:42;;;;;;;7.10;3.80;;;;;;;25.64;51.40;100246.00;5589692;31;33934;-69
2022/07/23 00:04:44;;;;;;;7.43;4.00;;;;;;;25.47;51.90;100243.47;5589843;31;34174;-69
2022/07/23 00:07:47;;;;;;;4.35;3.50;;;;;;;25.36;52.49;100241.84;5590129;31;34660;-69
2022/07/23 00:10:50;;;;;;;6.53;3.83;;;;;;;25.24;52.80;100226.84;5589860;31;35251;-69
2022/07/23 00:13:54;;;;;;;5.25;3.67;;;;;;;25.14;53.15;100237.69;5589791;31;34033;-69
2022/07/23 00:16:57;;;;;;;6.40;3.58;;;;;;;25.05;53.19;100234.69;5589958;31;34330;-70
2022/07/23 00:20:00;;;;;;;5.50;3.62;;;;;;;24.97;53.66;100229.78;5589595;31;33985;-69
2022/07/23 00:23:03;;;;;;;7.25;3.90;;;;;;;24.90;53.86;100246.28;5589758;31;33979;-69
2022/07/23 00:26:07;;;;;;;7.60;4.00;;;;;;;24.83;54.57;100240.28;5589748;31;34441;-69
2022/07/23 00:29:10;;;;;;;8.63;4.20;;;;;;;25.24;53.11;100240.44;5589580;31;34885;-69
2022/07/23 00:32:12;;;;;;;7.62;3.97;;;;;;;25.31;52.91;100238.28;5589566;31;34615;-69
2022/07/23 00:35:28;;;;;;;12.20;3.47;;;;;;;25.26;52.75;100238.28;5588745;31;34024;-69
2022/07/23 00:38:30;;;;;;;6.35;3.75;;;;;;;25.02;53.51;100246.91;5589981;31;34059;-69
2022/07/23 00:41:33;;;;;;;6.20;3.62;;;;;;;24.89;53.86;100249.25;5589475;31;35301;-69
2022/07/23 00:44:36;;;;;;;6.60;3.37;;;;;;;24.77;54.26;100243.22;5589513;31;34529;-69
2022/07/23 00:47:39;;;;;;;7.62;3.50;;;;;;;24.67;54.74;100249.41;5588937;31;33908;-70
2022/07/23 00:50:43;;;;;;;7.85;4.00;;;;;;;24.55;55.31;100249.59;5588963;31;33914;-70
2022/07/23 00:53:46;;;;;;;11.35;3.97;;;;;;;24.47;56.20;100249.28;5589383;31;34019;-70
2022/07/23 00:56:48;;;;;;;5.53;3.80;;;;;;;24.39;57.47;100256.03;5589325;31;34358;-70
2022/07/23 00:59:51;;;;;;;7.45;3.60;;;;;;;24.30;58.18;100249.47;5589555;31;34867;-70
2022/07/23 01:02:54;;;;;;;9.15;4.22;;;;;;;24.22;58.25;100255.38;5589297;31;34313;-70
2022/07/23 01:05:58;;;;;;;9.43;4.00;;;;;;;24.18;58.52;100251.53;5589370;31;34051;-70
2022/07/23 01:09:01;;;;;;;10.15;4.35;;;;;;;24.13;59.03;100252.28;5589560;31;34115;-70
2022/07/23 01:12:06;;;;;;;10.15;4.10;;;;;;;24.06;60.65;100259.03;5589307;31;33936;-70
2022/07/23 01:15:09;;;;;;;5.95;3.72;;;;;;;23.98;61.21;100248.62;5588405;31;34657;-69
2022/07/23 01:18:12;;;;;;;7.93;4.03;;;;;;;23.93;60.86;100251.31;5589096;31;34051;-70
2022/07/23 01:21:18;;;;;;;6.12;4.00;;;;;;;23.87;60.44;100244.22;5588960;31;34008;-70
2022/07/23 01:24:21;;;;;;;5.75;4.22;;;;;;;23.85;60.14;100243.66;5588944;31;34606;-70
2022/07/23 01:27:25;;;;;;;6.82;4.05;;;;;;;23.84;60.14;100240.13;5589314;31;34487;-70
2022/07/23 01:30:28;;;;;;;6.68;4.25;;;;;;;23.83;60.15;100239.31;5588813;31;34129;-70
2022/07/23 01:33:31;;;;;;;5.90;4.30;;;;;;;23.87;60.24;100239.59;5588753;31;34111;-70
2022/07/23 01:36:35;;;;;;;6.20;4.12;;;;;;;23.93;60.71;100246.72;5588799;31;33976;-69
2022/07/23 01:39:39;;;;;;;10.40;4.40;;;;;;;24.03;60.61;100248.69;5588732;31;34606;-70
2022/07/23 01:42:42;;;;;;;6.35;4.12;;;;;;;23.94;60.87;100242.09;5588746;31;35196;-70
2022/07/23 01:45:45;;;;;;;8.77;4.30;;;;;;;23.86;61.12;100248.00;5588982;31;34111;-70
2022/07/23 01:48:48;;;;;;;9.05;4.30;;;;;;;23.75;61.58;100249.81;5588659;31;34262;-69
2022/07/23 01:52:01;;;;;;;5.07;4.18;;;;;;;23.70;61.83;100253.28;5588634;31;34688;-70
2022/07/23 01:55:05;;;;;;;7.50;4.05;;;;;;;23.65;61.96;100249.72;5588419;31;33996;-70
2022/07/23 01:58:08;;;;;;;10.38;4.65;;;;;;;23.62;61.87;100252.94;5588494;31;34014;-70
2022/07/23 02:01:11;;;;;;;6.00;4.35;;;;;;;23.56;62.10;100249.38;5590140;31;34800;-70
2022/07/23 02:04:14;;;;;;;7.80;4.10;;;;;;;23.59;62.67;100256.16;5590949;31;33924;-70
2022/07/23 02:07:17;;;;;;;7.72;4.62;;;;;;;23.66;62.48;100251.34;5590118;31;34634;-70
2022/07/23 02:10:21;;;;;;;8.23;4.85;;;;;;;23.55;62.76;100247.72;5591330;31;34583;-70
2022/07/23 02:13:24;;;;;;;7.12;4.97;;;;;;;23.46;62.81;100241.13;5590817;31;34630;-70
2022/07/23 02:16:29;;;;;;;8.52;4.22;;;;;;;23.42;63.23;100239.97;5590858;31;33957;-70
2022/07/23 02:19:35;;;;;;;8.63;4.32;;;;;;;23.30;63.18;100239.31;5590792;31;35259;-69
2022/07/23 02:22:38;;;;;;;9.82;4.57;;;;;;;23.41;62.90;100241.06;5591226;31;35104;-69
2022/07/23 02:25:41;;;;;;;8.00;4.20;;;;;;;23.69;61.64;100240.81;5576662;31;32892;-69
2022/07/23 02:28:44;;;;;;;8.23;4.65;;;;;;;23.76;59.02;100240.63;5590839;31;34282;-69
2022/07/23 02:31:47;;;;;;;9.85;4.20;;;;;;;23.74;58.75;100240.03;5583466;31;225422;-69
2022/07/23 02:34:50;;;;;;;7.40;4.35;;;;;;;23.71;59.23;100235.16;5590514;31;34651;-69
2022/07/23 02:37:56;;;;;;;10.20;4.25;;;;;;;23.70;59.30;100244.34;5590933;31;34058;-70
2022/07/23 02:40:58;;;;;;;8.27;4.20;;;;;;;23.50;59.28;100239.53;5590558;31;34615;-70
2022/07/23 02:44:01;;;;;;;6.05;3.45;;;;;;;23.48;59.18;100254.44;5590639;31;33890;-69
2022/07/23 02:47:05;;;;;;;5.75;3.72;;;;;;;23.52;58.79;100242.84;5589957;31;35182;-69
2022/07/23 02:50:08;;;;;;;12.65;4.07;;;;;;;23.63;58.69;100249.97;5589764;31;34711;-69
2022/07/23 02:53:11;;;;;;;7.65;4.20;;;;;;;23.75;58.68;100255.22;5590497;31;35196;-70
2022/07/23 02:56:14;;;;;;;8.02;3.92;;;;;;;23.50;59.47;100253.09;5590400;31;34037;-70
2022/07/23 02:59:17;;;;;;;10.00;4.20;;;;;;;23.40;59.98;100247.53;5590686;31;34015;-70
2022/07/23 03:02:22;;;;;;;9.50;4.37;;;;;;;23.36;60.25;100246.41;5590264;31;34692;-70
2022/07/23 03:05:25;;;;;;;11.30;4.12;;;;;;;23.32;60.42;100243.41;5590344;31;34602;-69
2022/07/23 03:08:29;;;;;;;9.45;4.22;;;;;;;23.30;60.59;100242.81;5589402;31;34677;-70
2022/07/23 03:11:31;;;;;;;6.75;3.90;;;;;;;23.28;60.83;100239.56;5589728;31;33931;-70
2022/07/23 03:14:34;;;;;;;9.27;3.75;;;;;;;23.21;61.81;100252.47;5590234;31;34312;-70
2022/07/23 03:17:37;;;;;;;6.35;3.75;;;;;;;23.34;61.25;100256.66;5589513;31;34623;-70
2022/07/23 03:20:40;;;;;;;8.70;4.25;;;;;;;23.31;61.31;100252.59;5590130;31;35178;-71
2022/07/23 03:23:44;;;;;;;7.62;4.12;;;;;;;23.25;61.52;100248.19;5590610;31;34294;-71
2022/07/23 03:26:47;;;;;;;8.77;4.00;;;;;;;23.24;61.75;100254.66;5590502;31;34252;-69
2022/07/23 03:29:52;;;;;;;5.97;4.07;;;;;;;23.37;61.16;100261.59;5590437;31;34006;-70
2022/07/23 03:32:55;;;;;;;6.00;4.05;;;;;;;23.33;61.65;100258.56;5589881;31;34567;-71
2022/07/23 03:35:58;;;;;;;8.52;4.03;;;;;;;23.37;61.95;100264.31;5590281;31;34297;-71
2022/07/23 03:39:03;;;;;;;8.02;4.00;;;;;;;23.34;62.05;100256.66;5590093;31;34638;-71
2022/07/23 03:42:09;;;;;;;7.20;4.22;;;;;;;23.44;62.07;100247.84;5589345;31;32828;-71
2022/07/23 03:45:11;;;;;;;8.77;4.43;;;;;;;23.40;61.93;100251.06;5590043;31;35205;-71
2022/07/23 03:48:14;;;;;;;8.88;3.97;;;;;;;23.52;61.79;100253.66;5590060;31;34049;-71
2022/07/23 03:51:19;;;;;;;7.37;4.57;;;;;;;23.56;62.30;100243.94;5589944;31;34024;-71
2022/07/23 03:54:21;;;;;;;9.68;4.50;;;;;;;23.49;62.52;100247.91;5590126;31;33817;-71
2022/07/23 03:57:24;;;;;;;9.57;4.30;;;;;;;23.60;61.77;100255.91;5590114;31;34638;-70
2022/07/23 04:00:28;;;;;;;8.73;4.07;;;;;;;23.77;60.98;100256.59;5589938;31;35245;-71
2022/07/23 04:03:31;;;;;;;13.23;4.15;;;;;;;23.82;61.96;100245.81;5589800;31;34037;-71
2022/07/23 04:06:34;;;;;;;7.60;4.20;;;;;;;23.82;61.91;100261.22;5589935;31;34293;-70
2022/07/23 04:09:37;;;;;;;6.70;4.28;;;;;;;23.93;61.97;100262.97;5589845;31;34666;-71
2022/07/23 04:12:39;;;;;;;8.15;4.50;;;;;;;24.04;62.30;100261.97;5589678;31;33899;-70
2022/07/23 04:15:42;;;;;;;5.72;3.80;;;;;;;24.10;63.15;100263.66;5589203;31;32391;-71
2022/07/23 04:18:45;;;;;;;7.50;4.30;;;;;;;23.95;62.86;100265.44;5589772;31;34026;-71
2022/07/23 04:21:48;;;;;;;7.70;4.05;;;;;;;23.98;62.64;100265.72;5589871;31;34356;-69
2022/07/23 04:24:51;;;;;;;8.45;3.97;;;;;;;23.99;62.04;100275.50;5588368;31;34646;-69
2022/07/23 04:27:54;;;;;;;7.07;4.10;;;;;;;24.02;61.95;100272.25;5589711;31;33943;-71
2022/07/23 04:30:58;;;;;;;5.90;4.10;;;;;;;24.15;61.20;100276.44;5590061;31;35125;-70
2022/07/23 04:34:01;;;;;;;11.32;4.35;;;;;;;24.14;61.33;100277.50;5588590;31;32863;-69
2022/07/23 04:37:05;;;;;;;8.25;4.60;;;;;;;24.01;62.31;100267.91;5589593;31;34706;-69
2022/07/23 04:40:08;;;;;;;9.38;4.50;;;;;;;23.99;62.42;100271.97;5589546;31;33965;-70
2022/07/23 04:43:11;;;;;;;6.25;4.00;;;;;;;23.95;62.20;100274.37;5589418;31;35229;-69
2022/07/23 04:46:15;;;;;;;7.95;4.22;;;;;;;24.15;61.51;100277.25;5589510;31;34334;-70
2022/07/23 04:49:19;;;;;;;9.38;4.90;;;;;;;24.15;60.84;100282.69;5589478;31;34617;-69
2022/07/23 04:52:22;;;;;;;7.87;4.32;;;;;;;24.22;60.41;100285.19;5589391;31;35379;-69
2022/07/23 04:55:25;;;;;;;10.18;4.43;;;;;;;24.25;60.12;100285.47;5589302;31;34045;-69
2022/07/23 04:58:28;;;;;;;6.68;3.90;;;;;;;24.30;59.62;100290.12;5589594;31;34756;-68
2022/07/23 05:01:30;;;;;;;7.50;4.30;;;;;;;24.44;57.49;100285.91;5589194;31;33961;-69
2022/07/23 05:04:33;;;;;;;8.75;4.18;;;;;;;24.53;57.29;100287.03;5588470;31;35405;-69
2022/07/23 05:07:36;;;;;;;5.72;3.90;;;;;;;24.81;55.59;100290.44;5589629;31;33904;-69
2022/07/23 05:10:40;;;;;;;6.72;3.87;;;;;;;24.74;55.16;100287.16;5589280;31;35213;-69
2022/07/23 05:13:42;;;;;;;7.57;4.00;;;;;;;24.86;54.68;100279.62;5589030;31;34634;-69
2022/07/23 05:16:45;;;;;;;6.15;3.97;;;;;;;25.00;54.88;100275.38;5589422;31;33977;-69
2022/07/23 05:19:48;;;;;;;5.03;4.00;;;;;;;25.03;54.72;100277.53;5588438;31;33283;-68
2022/07/23 05:22:51;;;;;;;7.85;3.65;;;;;;;25.10;53.91;100272.69;5588946;31;34665;-69
2022/07/23 05:25:53;;;;;;;6.15;3.78;;;;;;;25.25;54.37;100277.37;5588343;31;33975;-69
2022/07/23 05:28:57;;;;;;;6.22;3.60;;;;;;;25.32;52.17;100280.66;5589044;31;34069;-69
2022/07/23 05:31:59;;;;;;;5.93;4.20;;;;;;;25.53;51.27;100271.47;5588122;31;33918;-69
2022/07/23 05:35:05;;;;;;;6.18;4.00;;;;;;;25.70;51.34;100282.97;5587958;31;34157;-69
2022/07/23 05:38:08;;;;;;;8.38;3.58;;;;;;;25.86;50.39;100284.59;5589090;31;32328;-68
2022/07/23 05:41:11;;;;;;;5.40;3.58;;;;;;;25.91;49.67;100281.88;5588807;31;33951;-68
2022/07/23 05:44:14;;;;;;;7.47;3.65;;;;;;;26.10;49.02;100284.87;5588627;31;33989;-69
2022/07/23 05:47:18;;;;;;;7.10;3.62;;;;;;;26.18;49.15;100287.06;5588621;31;34085;-69
2022/07/23 05:50:20;;;;;;;9.05;3.65;;;;;;;26.25;50.25;100282.19;5588541;31;34024;-69
2022/07/23 05:53:24;;;;;;;10.05;3.67;;;;;;;26.33;49.67;100281.66;5588411;31;33922;-68
2022/07/23 05:56:27;;;;;;;8.32;3.67;;;;;;;26.50;49.36;100280.50;5587341;31;32757;-69
2022/07/23 05:59:30;;;;;;;11.27;3.92;;;;;;;26.63;50.52;100274.50;5587125;31;33153;-69
2022/07/23 06:02:33;;;;;;;5.75;3.47;;;;;;;26.74;49.11;100276.91;5588078;31;34087;-69
2022/07/23 06:05:36;;;;;;;10.80;3.42;;;;;;;26.73;49.17;100283.44;5587208;31;34324;-69
2022/07/23 06:08:40;;;;;;;7.37;3.50;;;;;;;26.91;47.91;100284.81;5587371;31;34945;-69
2022/07/23 06:11:44;;;;;;;7.70;3.70;;;;;;;27.06;47.16;100286.66;5587178;31;32639;-69
2022/07/23 06:14:49;;;;;;;9.05;3.15;;;;;;;27.25;47.52;100274.03;5587687;31;34645;-69
2022/07/23 06:17:52;;;;;;;5.00;3.03;;;;;;;27.42;45.99;100262.75;5588019;31;34840;-68
2022/07/23 06:20:55;;;;;;;7.78;3.10;;;;;;;27.42;43.37;100258.13;5587203;31;35159;-69
2022/07/23 06:24:02;;;;;;;5.12;3.22;;;;;;;27.70;43.93;100256.59;5587996;31;34626;-69
2022/07/23 06:27:05;;;;;;;9.77;3.53;;;;;;;27.78;43.14;100258.75;5587836;31;34372;-70
2022/07/23 06:30:10;;;;;;;7.47;3.60;;;;;;;27.89;43.32;100254.00;5588038;31;34000;-69
2022/07/23 06:33:12;;;;;;;6.32;3.20;;;;;;;28.03;43.84;100258.50;5587529;31;35367;-69
2022/07/23 06:36:19;;;;;;;8.18;3.40;;;;;;;28.17;43.27;100260.63;5587647;31;34491;-69
2022/07/23 06:39:22;;;;;;;4.78;3.10;;;;;;;28.31;43.37;100256.12;5587884;31;34638;-69
2022/07/23 06:42:25;;;;;;;4.53;3.33;;;;;;;28.38;42.78;100262.06;5587517;31;33994;-69
2022/07/23 06:45:28;;;;;;;4.40;3.20;;;;;;;28.56;42.39;100255.88;5586638;31;34670;-69
2022/07/23 06:48:31;;;;;;;4.90;3.00;;;;;;;28.59;41.90;100254.47;5589862;31;34566;-69
2022/07/23 06:51:34;;;;;;;5.62;3.15;;;;;;;28.70;40.93;100256.81;5589704;31;32438;-69
2022/07/23 06:54:37;;;;;;;5.45;3.12;;;;;;;28.91;41.24;100258.22;5590531;31;33977;-69
2022/07/23 06:57:40;;;;;;;5.22;3.03;;;;;;;29.13;39.98;100251.41;5590514;31;34600;-69
2022/07/23 07:00:43;;;;;;;6.87;2.83;;;;;;;29.40;38.92;100251.59;5590290;31;33952;-69
2022/07/23 07:03:46;;;;;;;7.90;3.42;;;;;;;29.55;38.82;100262.28;5590212;31;34077;-70
2022/07/23 07:06:51;;;;;;;8.55;3.62;;;;;;;29.90;38.20;100257.41;5590091;31;35523;-69
2022/07/23 07:09:54;;;;;;;8.25;2.95;;;;;;;30.21;37.82;100253.03;5590285;31;33463;-69
2022/07/23 07:12:57;;;;;;;5.82;2.97;;;;;;;30.36;37.55;100254.69;5589997;31;34698;-69
2022/07/23 07:16:00;;;;;;;4.72;3.05;;;;;;;30.65;36.45;100253.31;5590101;31;34205;-69
2022/07/23 07:19:06;;;;;;;8.52;2.80;;;;;;;30.92;35.53;100251.72;5589360;31;32847;-69
2022/07/23 07:22:09;;;;;;;10.77;3.08;;;;;;;31.25;35.12;100242.25;5589329;31;33637;-69
2022/07/23 07:25:22;;;;;;;6.35;3.50;;;;;;;31.52;34.30;100235.88;5589999;31;34487;-69
2022/07/23 07:28:28;;;;;;;5.37;2.90;;;;;;;31.81;34.36;100233.53;5575962;31;34106;-70
2022/07/23 07:31:32;;;;;;;5.97;3.22;;;;;;;32.03;34.73;100229.97;5589578;31;34672;-69
2022/07/23 07:34:35;;;;;;;7.30;3.28;;;;;;;32.48;33.45;100233.50;5589934;31;34037;-69
2022/07/23 07:37:38;;;;;;;6.62;2.80;;;;;;;33.40;32.16;100234.41;5589936;31;34358;-68
2022/07/23 07:40:40;;;;;;;5.15;3.10;;;;;;;34.18;30.25;100233.19;5589883;31;34178;-69
2022/07/23 07:43:43;;;;;;;8.38;3.17;;;;;;;34.54;30.06;100238.28;5589808;31;34162;-69
2022/07/23 07:46:46;;;;;;;6.85;3.15;;;;;;;35.42;29.16;100231.94;5590118;31;33878;-69
2022/07/23 07:49:49;;;;;;;6.80;2.55;;;;;;;36.11;28.44;100234.91;5589784;31;34782;-69
2022/07/23 07:56:21;;;;;;;9.80;3.10;;;;;;;36.97;27.08;100226.34;5589835;31;34036;-69
2022/07/23 07:59:24;;;;;;;8.35;2.85;;;;;;;37.87;24.91;100225.06;5589629;31;33975;-69
2022/07/23 08:02:27;;;;;;;7.40;2.80;;;;;;;38.01;24.44;100225.47;5589620;31;33987;-69
2022/07/23 08:05:30;;;;;;;8.05;2.97;;;;;;;38.83;24.60;100233.87;5589679;31;33923;-69
2022/07/23 08:08:33;;;;;;;6.97;2.72;;;;;;;39.13;24.01;100225.88;5589668;31;34291;-70
2022/07/23 08:11:36;;;;;;;6.70;3.20;;;;;;;39.18;24.13;100233.13;5589903;31;33945;-70
2022/07/23 08:14:39;;;;;;;6.80;2.42;;;;;;;39.35;23.70;100235.53;5588640;31;34531;-69
2022/07/23 08:17:43;;;;;;;7.10;2.67;;;;;;;39.07;23.95;100233.69;5590029;31;33942;-68
2022/07/23 08:20:46;;;;;;;9.45;2.70;;;;;;;39.16;22.94;100232.69;5589612;31;34665;-69
2022/07/23 08:23:49;;;;;;;4.50;2.22;;;;;;;39.77;21.89;100232.81;5589007;31;33581;-69
2022/07/23 08:26:52;;;;;;;5.82;2.60;;;;;;;40.96;21.10;100229.75;5589262;31;33917;-70
2022/07/23 08:29:54;;;;;;;5.50;2.72;;;;;;;40.75;21.59;100224.66;5588659;31;32409;-69
2022/07/23 08:33:00;;;;;;;6.85;2.47;;;;;;;41.03;21.05;100221.53;5589196;31;34120;-71
2022/07/23 08:36:04;;;;;;;7.97;2.45;;;;;;;41.28;19.69;100217.09;5589457;31;34632;-70
2022/07/23 08:39:07;;;;;;;6.22;2.25;;;;;;;40.67;21.21;100215.41;5589916;31;34128;-70
2022/07/23 08:42:09;;;;;;;3.80;2.50;;;;;;;41.70;18.70;100222.38;5588933;31;32768;-68
2022/07/23 08:45:12;;;;;;;4.95;2.60;;;;;;;40.90;20.58;100215.34;5588718;31;32577;-69
2022/07/23 08:48:18;;;;;;;5.95;2.33;;;;;;;41.67;19.97;100219.56;5588715;31;32427;-70
2022/07/23 08:51:26;;;;;;;6.55;2.20;;;;;;;41.69;18.27;100220.78;5588642;31;34143;-69
2022/07/23 08:54:31;;;;;;;7.57;2.67;;;;;;;41.69;18.50;100220.78;5588724;31;32876;-68
2022/07/23 08:57:34;;;;;;;5.20;2.00;;;;;;;42.41;17.85;100217.56;5589327;31;34724;-69
2022/07/23 09:00:37;;;;;;;4.05;2.22;;;;;;;42.71;18.46;100200.66;5589233;31;33859;-69
2022/07/23 09:03:40;;;;;;;3.97;2.20;;;;;;;42.38;17.94;100212.75;5589022;31;34043;-68
2022/07/23 09:06:43;;;;;;;9.65;2.60;;;;;;;43.01;17.54;100206.03;5588520;31;34021;-72
2022/07/23 09:09:46;;;;;;;3.72;2.25;;;;;;;43.60;17.42;100207.53;5588249;31;34209;-69
2022/07/23 09:12:48;;;;;;;6.40;2.40;;;;;;;44.20;16.29;100206.87;5588392;31;34577;-68
2022/07/23 09:15:53;;;;;;;10.40;2.28;;;;;;;44.64;16.19;100198.06;5589090;31;35316;-68
2022/07/23 09:18:58;;;;;;;3.12;2.00;;;;;;;43.98;16.48;100208.84;5589023;31;34795;-68
2022/07/23 09:22:26;;;;;;;3.35;2.03;;;;;;;44.35;16.66;100202.91;5575021;31;32323;-70
2022/07/23 09:25:30;;;;;;;5.95;2.25;;;;;;;44.78;16.07;100201.69;5589338;31;34702;-68
2022/07/23 09:28:49;;;;;;;10.63;2.20;;;;;;;44.26;17.23;100200.50;5588100;31;32671;-69
2022/07/23 09:31:53;;;;;;;7.65;2.62;;;;;;;45.00;16.27;100189.19;5588304;31;32573;-67
2022/07/23 09:34:56;;;;;;;5.68;2.10;;;;;;;45.20;16.00;100188.75;5588434;31;35253;-67
2022/07/23 09:38:02;;;;;;;3.40;2.17;;;;;;;44.34;17.05;100193.72;5588390;31;32848;-68
2022/07/23 09:41:12;;;;;;;4.03;2.37;;;;;;;44.09;17.19;100187.28;5588975;31;34543;-68
2022/07/23 09:44:18;;;;;;;4.47;2.55;;;;;;;44.58;16.32;100183.69;5588654;31;34293;-68
2022/07/23 09:47:28;;;;;;;3.45;2.10;;;;;;;44.63;16.73;100191.69;5588416;31;34483;-67
2022/07/23 09:50:37;;;;;;;4.25;2.08;;;;;;;44.63;16.15;100182.47;5588548;31;34104;-70
2022/07/23 09:53:39;;;;;;;7.30;2.30;;;;;;;44.79;17.66;100169.66;5588469;31;34264;-68
2022/07/23 09:56:43;;;;;;;3.20;2.17;;;;;;;44.80;16.07;100168.47;5587894;31;32292;-66
2022/07/23 09:59:47;;;;;;;5.15;2.45;;;;;;;44.07;17.32;100175.69;5587414;31;33972;-68
2022/07/23 10:02:52;;;;;;;5.50;2.42;;;;;;;43.37;16.99;100171.53;5588413;31;34635;-69
2022/07/23 10:05:59;;;;;;;3.30;1.98;;;;;;;44.44;16.69;100167.72;5575057;31;33360;-73
2022/07/23 10:09:05;;;;;;;7.75;2.80;;;;;;;44.68;16.12;100171.72;5587826;31;33171;-69
2022/07/23 10:15:36;;;;;;;2.95;2.20;;;;;;;44.33;15.82;100154.94;5588593;31;34011;-70
2022/07/23 10:18:39;;;;;;;6.10;2.28;;;;;;;43.89;16.13;100164.50;5587813;31;34024;-70
2022/07/23 10:21:51;;;;;;;4.22;2.20;;;;;;;44.77;15.21;100162.87;5589641;31;34004;-68
2022/07/23 10:25:11;;;;;;;3.92;2.28;;;;;;;44.20;16.09;100153.72;5590017;31;34522;-68
2022/07/23 10:28:26;;;;;;;5.05;2.65;;;;;;;43.71;16.89;100158.06;5589754;31;33989;-69
2022/07/23 10:31:38;;;;;;;6.22;2.58;;;;;;;44.02;15.68;100159.31;5590972;31;34316;-69
2022/07/23 10:35:16;;;;;;;5.53;2.42;;;;;;;44.37;16.20;100142.53;5590551;31;35140;-69
2022/07/23 10:38:24;;;;;;;6.22;2.78;;;;;;;44.53;15.63;100147.72;5590607;31;33990;-70
2022/07/23 10:41:41;;;;;;;5.50;2.90;;;;;;;44.09;15.75;100146.16;5590583;31;34160;-70
2022/07/23 10:44:47;;;;;;;6.05;2.75;;;;;;;44.08;15.63;100141.75;5590384;31;35040;-68
2022/07/23 10:47:53;;;;;;;5.18;2.45;;;;;;;44.10;16.13;100146.94;5590424;31;34011;-68
2022/07/23 10:51:24;;;;;;;;;;;;;;;46.10;14.59;100126.94;5590082;31;33960;-68
2022/07/23 10:54:26;;;;;;;8.07;2.72;;;;;;;47.04;14.50;100131.22;5587490;31;34314;-69
2022/07/23 10:57:29;;;;;;;5.47;2.62;;;;;;;45.31;15.09;100114.69;5589612;31;35225;-68
2022/07/23 11:00:34;;;;;;;3.03;2.47;;;;;;;47.65;13.69;100131.19;5589815;31;32472;-68
2022/07/23 11:03:38;;;;;;;7.45;2.90;;;;;;;48.64;12.37;100124.66;5589561;31;33360;-70
2022/07/23 11:06:50;;;;;;;5.62;2.60;;;;;;;47.93;12.55;100120.28;5589756;31;33226;-70
2022/07/23 11:09:53;;;;;;;4.62;2.28;;;;;;;47.98;12.62;100119.00;5590292;31;34180;-71
2022/07/23 11:13:22;;;;;;;5.40;2.50;;;;;;;48.15;12.85;100125.56;5590347;31;34631;-69
2022/07/23 11:16:25;;;;;;;4.05;2.35;;;;;;;48.03;12.68;100109.31;5590128;31;35375;-68
2022/07/23 11:19:28;;;;;;;4.93;2.80;;;;;;;48.57;12.38;100101.47;5590130;31;35280;-70
2022/07/23 11:22:43;;;;;;;3.05;2.45;;;;;;;46.92;13.04;100100.88;5590386;31;33986;-67
2022/07/23 11:25:46;;;;;;;3.75;2.65;;;;;;;46.58;13.35;100084.81;5588947;31;32843;-69
2022/07/23 11:28:51;;;;;;;5.20;2.72;;;;;;;47.02;13.01;100092.31;5589424;31;33636;-66
2022/07/23 11:32:01;;;;;;;3.80;2.83;;;;;;;46.29;13.15;100089.13;5589029;31;34332;-69
2022/07/23 11:35:25;;;;;;;5.40;2.90;;;;;;;48.13;12.33;100086.59;5590111;31;34125;-69
2022/07/23 11:38:31;;;;;;;6.03;2.90;;;;;;;48.12;12.52;100082.22;5590234;31;33903;-68
2022/07/23 11:41:44;;;;;;;7.07;2.93;;;;;;;46.88;13.14;100084.03;5590117;31;33909;-69
2022/07/23 11:44:48;;;;;;;5.65;2.53;;;;;;;47.47;12.44;100073.22;5589954;31;33983;-68
2022/07/23 11:47:51;;;;;;;5.87;2.95;;;;;;;46.96;12.75;100073.56;5589966;31;34808;-69
2022/07/23 11:50:55;;;;;;;7.30;2.80;;;;;;;45.96;13.65;100068.19;5589092;31;33918;-68
2022/07/23 11:54:06;;;;;;;2.65;2.42;;;;;;;46.81;12.93;100064.50;5588973;31;32309;-69
2022/07/23 11:57:09;;;;;;;4.15;2.62;;;;;;;47.34;12.25;100058.19;5589521;31;32694;-70
2022/07/23 12:00:20;;;;;;;6.93;2.67;;;;;;;49.33;11.17;100051.56;5589367;31;33235;-69
2022/07/23 12:03:24;;;;;;;3.35;2.90;;;;;;;50.03;10.88;100046.19;5588959;31;31747;-67
2022/07/23 12:06:26;;;;;;;4.30;2.60;;;;;;;49.36;10.93;100040.22;5590327;31;34829;-69
2022/07/23 12:09:29;;;;;;;5.43;2.65;;;;;;;50.34;10.81;100038.91;5588792;31;33908;-68
2022/07/23 12:12:37;;;;;;;2.90;2.40;;;;;;;50.37;10.90;100035.16;5589804;31;33950;-69
2022/07/23 12:15:43;;;;;;;11.32;2.70;;;;;;;50.59;10.40;100026.13;5589922;31;34747;-69
2022/07/23 12:18:46;;;;;;;4.03;2.70;;;;;;;48.86;11.47;100020.03;5589035;31;33683;-68
2022/07/23 12:21:49;;;;;;;5.35;2.75;;;;;;;46.72;12.98;100024.13;5588835;31;32803;-68
2022/07/23 12:25:15;;;;;;;5.40;2.80;;;;;;;47.93;12.26;100015.44;5588933;31;34027;-68
2022/07/23 12:28:28;;;;;;;4.23;2.70;;;;;;;47.23;12.68;100012.56;5589074;31;33252;-68
2022/07/23 12:31:30;;;;;;;7.10;2.78;;;;;;;48.15;13.08;100004.59;5589547;31;33965;-69
2022/07/23 12:34:33;;;;;;;4.10;2.80;;;;;;;48.83;11.39;99996.34;5589439;31;34038;-69
2022/07/23 12:37:39;;;;;;;4.35;2.60;;;;;;;50.70;10.76;99993.47;5589951;31;34619;-68
2022/07/23 12:40:51;;;;;;;5.80;2.78;;;;;;;51.00;9.98;99994.97;5588978;31;32350;-68
2022/07/23 12:43:53;;;;;;;4.37;2.60;;;;;;;51.51;9.96;100009.09;5588237;31;34607;-69
2022/07/23 12:46:56;;;;;;;4.43;2.97;;;;;;;51.96;9.19;100001.03;5589405;31;34444;-69
2022/07/23 12:49:59;;;;;;;6.03;2.97;;;;;;;51.26;9.41;99990.91;5588812;31;32880;-69
2022/07/23 12:53:15;;;;;;;7.25;2.83;;;;;;;52.06;8.84;99990.59;5588766;31;32894;-69
2022/07/23 12:56:33;;;;;;;6.80;3.00;;;;;;;52.23;8.81;99992.00;5588878;31;33232;-67
2022/07/23 12:59:38;;;;;;;5.12;2.87;;;;;;;51.37;9.42;99979.22;5589820;31;33923;-68
2022/07/23 13:02:46;;;;;;;6.70;2.90;;;;;;;53.13;8.80;99973.13;5588324;31;32553;-69
2022/07/23 13:05:49;;;;;;;3.92;2.80;;;;;;;52.94;8.61;99973.06;5588876;31;32751;-68
2022/07/23 13:08:55;;;;;;;5.78;3.10;;;;;;;52.93;8.92;99965.03;5575872;31;32579;-69
2022/07/23 13:11:59;;;;;;;4.53;2.50;;;;;;;52.35;9.29;99967.69;5588829;31;33465;-70
2022/07/23 13:15:01;;;;;;;6.87;2.53;;;;;;;53.04;8.54;99978.75;5588569;31;34082;-68
2022/07/23 13:18:04;;;;;;;6.50;2.70;;;;;;;50.09;9.81;99962.59;5589177;31;34252;-68
2022/07/23 13:21:08;;;;;;;5.10;2.80;;;;;;;47.98;11.35;99960.69;5589178;31;35397;-68
2022/07/23 13:24:12;;;;;;;9.30;3.30;;;;;;;45.48;12.63;99960.88;5588628;31;34131;-69
2022/07/23 13:27:14;;;;;;;4.18;2.65;;;;;;;47.76;11.74;99960.31;5588393;31;34710;-67
2022/07/23 13:30:19;;;;;;;6.15;3.08;;;;;;;50.17;10.27;99952.69;5588267;31;34320;-69
2022/07/23 13:33:26;;;;;;;4.35;2.30;;;;;;;50.86;10.04;99944.56;5588605;31;35156;-70
2022/07/23 13:36:29;;;;;;;4.45;2.75;;;;;;;52.30;9.55;99942.81;5587999;31;34344;-71
2022/07/23 13:39:32;;;;;;;4.95;2.50;;;;;;;54.69;8.04;99944.28;5587602;31;32962;-71
2022/07/23 13:42:40;;;;;;;4.00;2.58;;;;;;;55.53;7.68;99937.63;5588180;31;32878;-68
2022/07/23 13:45:43;;;;;;;6.15;2.60;;;;;;;52.72;8.82;99929.84;5588543;31;33955;-67
2022/07/23 13:48:47;;;;;;;3.95;2.40;;;;;;;53.67;8.43;99927.06;5587481;31;32724;-69
2022/07/23 13:51:49;;;;;;;3.92;2.53;;;;;;;54.37;8.12;99933.66;5588677;31;34236;-69
2022/07/23 13:54:52;;;;;;;7.37;2.67;;;;;;;53.41;9.02;99926.59;5588552;31;34004;-68
2022/07/23 13:57:55;;;;;;;6.65;2.53;;;;;;;52.24;9.09;99924.84;5590802;31;34094;-67
2022/07/23 14:00:59;;;;;;;3.37;2.62;;;;;;;51.54;9.62;99914.84;5590579;31;32480;-68
2022/07/23 14:04:05;;;;;;;7.07;2.50;;;;;;;52.51;8.96;99910.84;5577319;31;34034;-70
2022/07/23 14:07:07;;;;;;;2.97;2.53;;;;;;;53.18;8.43;99912.97;5590015;31;32805;-68
2022/07/23 14:10:10;;;;;;;4.53;2.45;;;;;;;52.49;8.64;99914.16;5591027;31;33977;-68
2022/07/23 14:13:16;;;;;;;4.53;2.70;;;;;;;51.13;9.42;99915.88;5591041;31;35233;-69
2022/07/23 14:16:23;;;;;;;;;;;;;;;52.53;8.94;99897.03;5591321;31;34028;-68
2022/07/23 14:19:26;;;;;;;3.80;2.83;;;;;;;53.08;8.64;99900.06;5591069;31;34452;-69
2022/07/23 14:22:33;;;;;;;4.25;2.72;;;;;;;53.46;8.14;99894.75;5590835;31;34178;-70
2022/07/23 14:25:35;;;;;;;6.60;2.92;;;;;;;51.71;8.79;99887.97;5590997;31;33979;-71
2022/07/23 14:28:41;;;;;;;5.55;2.95;;;;;;;48.69;10.28;99875.59;5590951;31;34607;-68